Latest Weather Observations for Walpeup

IDV60801

Issued at 10:12 pm EDT Thursday 17 January 2019 (issued every 10 minutes, with the page automatically refreshed every 10 minutes)

About weather observations | Map of weather stations | Latest weather observations for VIC | Other Formats
Station Details ID: 076064 Name: WALPEUP RESEARCH Lat: -35.12 Lon: 142.00 Height: 105.0 m
Data from the previous 72 hours. | See also: Recent months at Walpeup
Date/Time
EDT
Temp
°C
App
Temp
°C
Dew
Point
°C
Rel
Hum
%
Delta-T
°C
Wind Press
QNH
hPa
Press
MSL
hPa
Rain since
9am
mm
Dir  Spd
km/h
Gust
km/h
Spd
kts
Gust
kts
17/10:00pm 31.5 26.9 12.3 31 11.4 S 28 37 15 20 - - 0.0
17/09:30pm 32.1 26.7 12.3 29 11.8 S 32 43 17 23 - - 0.0
17/09:00pm 33.1 27.3 11.6 27 12.7 S 33 44 18 24 - - 0.0
17/08:30pm 34.9 29.4 10.7 23 14.2 S 30 43 16 23 - - 0.0
17/08:00pm 36.7 32.4 10.8 21 15.3 SSE 24 39 13 21 - - 0.0
17/07:30pm 37.5 33.9 10.7 20 15.9 SSE 20 30 11 16 - - 0.0
17/07:00pm 38.4 34.8 9.9 18 16.8 SSE 19 28 10 15 - - 0.0
17/06:30pm 40.0 38.9 8.5 15 18.3 WSW 4 13 2 7 - - 0.0
17/06:00pm 39.8 38.7 8.3 15 18.2 N 4 7 2 4 - - 0.0
17/05:30pm 40.0 38.9 8.5 15 18.3 NE 4 9 2 5 - - 0.0
17/05:00pm 39.8 37.7 8.3 15 18.2 NE 9 19 5 10 - - 0.0
17/04:30pm 39.9 38.2 8.4 15 18.2 NNE 7 15 4 8 - - 0.0
17/04:00pm 41.0 39.1 9.2 15 18.7 SSW 9 17 5 9 - - 0.0
17/03:30pm 40.8 38.9 9.1 15 18.6 SW 9 15 5 8 - - 0.0
17/03:00pm 39.4 37.7 9.8 17 17.5 E 9 19 5 10 - - 0.0
17/02:30pm 39.3 36.4 9.8 17 17.4 S 15 22 8 12 - - 0.0
17/02:00pm 39.1 36.2 9.6 17 17.3 SSW 15 22 8 12 - - 0.0
17/01:30pm 37.5 34.3 10.0 19 16.1 SSW 17 24 9 13 - - 0.0
17/01:00pm 37.1 33.8 9.6 19 16.0 S 17 26 9 14 - - 0.0
17/12:30pm 37.1 32.1 9.6 19 16.0 S 26 39 14 21 - - 0.0
17/12:00pm 37.3 34.3 10.6 20 15.8 S 17 32 9 17 - - 0.0
17/11:30am 36.9 33.4 10.2 20 15.7 SSE 19 32 10 17 - - 0.0
17/11:00am 36.1 31.7 10.3 21 15.1 S 24 35 13 19 - - 0.0
17/10:30am 35.5 32.1 11.2 23 14.4 S 20 28 11 15 - - 0.0
17/10:00am 32.7 29.5 11.8 28 12.4 SSE 20 26 11 14 - - 0.0
17/09:30am 30.3 27.3 11.8 32 10.8 SSE 19 28 10 15 - - 0.0
17/09:00am 29.0 26.0 12.0 35 9.9 SSE 19 26 10 14 - - 0.0
17/08:30am 28.8 24.9 12.2 35 9.7 S 24 33 13 18 - - 0.0
17/08:00am 28.3 24.4 12.2 37 9.4 S 24 35 13 19 - - 0.0
17/07:30am 27.8 23.7 12.6 39 8.9 SSW 26 35 14 19 - - 0.0
17/07:00am 28.3 24.2 10.0 32 10.3 SW 22 33 12 18 - - 0.0
17/06:30am 27.2 24.5 9.1 32 10.0 WSW 13 19 7 10 - - 0.0
17/06:00am 28.1 27.1 8.9 30 10.6 NNW 4 11 2 6 - - 0.0
17/05:30am 28.9 27.0 9.1 29 11.0 NE 9 11 5 6 - - 0.0
17/05:00am 29.6 27.7 9.2 28 11.4 NE 9 11 5 6 - - 0.0
17/04:30am 29.8 27.8 8.8 27 11.7 NE 9 13 5 7 - - 0.0
17/04:00am 29.7 27.7 8.7 27 11.7 NE 9 13 5 7 - - 0.0
17/03:30am 30.1 27.7 8.5 26 12.0 ENE 11 19 6 10 - - 0.0
17/03:00am 30.1 27.7 8.5 26 12.0 ENE 11 15 6 8 - - 0.0
17/02:30am 30.8 28.2 7.9 24 12.6 ENE 11 15 6 8 - - 0.0
17/02:00am 31.8 29.1 7.5 22 13.4 E 11 15 6 8 - - 0.0
17/01:30am 32.3 29.6 7.2 21 13.8 E 11 15 6 8 - - 0.0
17/01:00am 32.6 29.9 7.4 21 13.9 E 11 15 6 8 - - 0.0
17/12:30am 32.5 30.0 6.7 20 14.1 ENE 9 13 5 7 - - 0.0
17/12:00am 33.4 30.5 6.6 19 14.6 E 11 15 6 8 - - 0.0
 
Date/Time
EDT
Temp
°C
App
Temp
°C
Dew
Point
°C
Rel
Hum
%
Delta-T
°C
Wind Press
QNH
hPa
Press
MSL
hPa
Rain since
9am
mm
Dir  Spd
km/h
Gust
km/h
Spd
kts
Gust
kts
16/11:30pm 33.3 31.0 5.8 18 14.8 E 7 11 4 6 - - 0.0
16/11:00pm 33.9 31.2 5.4 17 15.3 E 9 13 5 7 - - 0.0
16/10:30pm 34.5 32.0 5.0 16 15.8 ESE 7 11 4 6 - - 0.0
16/10:00pm 34.1 31.4 2.8 14 16.2 SE 6 11 3 6 - - 0.0
16/09:30pm 33.9 30.8 1.6 13 16.3 S 7 9 4 5 - - 0.0
16/09:00pm 33.8 30.7 1.6 13 16.3 SSW 7 9 4 5 - - 0.0
16/08:30pm 35.8 31.8 0.8 11 17.7 SSW 11 17 6 9 - - 0.0
16/08:00pm 36.7 32.3 0.1 10 18.4 SSW 13 20 7 11 - - 0.0
16/07:30pm 37.9 32.1 -0.4 9 19.2 SSW 20 28 11 15 - - 0.0
16/07:00pm 38.9 33.2 0.3 9 19.7 SSW 20 28 11 15 - - 0.0
16/06:30pm 39.7 33.8 -0.7 8 20.4 SSW 20 28 11 15 - - 0.0
16/06:00pm 40.5 34.3 -0.1 8 20.8 SSW 22 32 12 17 - - 0.0
16/05:30pm 41.6 36.1 0.7 8 21.3 SW 19 28 10 15 - - 0.0
16/05:00pm 41.9 36.8 0.9 8 21.5 SW 17 26 9 14 - - 0.0
16/04:30pm 44.4 38.8 0.9 7 23.1 SW 20 30 11 16 - - 0.0
16/04:00pm 44.4 38.9 0.9 7 23.1 WSW 19 33 10 18 - - 0.0
16/03:30pm 43.2 38.7 0.0 7 22.5 WSW 13 22 7 12 - - 0.0
16/03:00pm 43.3 37.4 1.9 8 22.2 SW 22 32 12 17 - - 0.0
16/02:30pm 43.5 38.0 2.1 8 22.3 WSW 20 33 11 18 - - 0.0
16/02:00pm 43.4 37.2 2.0 8 22.2 SW 24 33 13 18 - - 0.0
16/01:30pm 42.3 36.7 1.2 8 21.7 WSW 20 32 11 17 - - 0.0
16/01:00pm 43.4 39.3 2.0 8 22.2 WSW 13 22 7 12 - - 0.0
16/12:30pm 43.4 40.0 2.0 8 22.2 W 9 20 5 11 - - 0.0
16/12:00pm 42.0 38.7 2.6 9 21.2 W 9 19 5 10 - - 0.0
16/11:30am 40.0 36.7 2.6 10 19.9 NNW 9 15 5 8 - - 0.0
16/11:00am 39.2 36.4 3.4 11 19.2 NNE 7 11 4 6 - - 0.0
16/10:30am 36.6 33.1 3.7 13 17.5 NE 11 17 6 9 - - 0.0
16/10:00am 35.5 32.1 3.9 14 16.7 NE 11 13 6 7 - - 0.0
16/09:30am 34.2 32.1 3.9 15 15.9 ESE 4 7 2 4 - - 0.0
16/09:00am 31.7 29.0 2.8 16 14.7 SE 6 7 3 4 - - 0.0
16/08:30am 28.7 25.7 2.1 18 13.1 SSE 7 13 4 7 - - 0.0
16/08:00am 27.0 24.0 2.1 20 12.1 SSE 7 11 4 6 - - 0.0
16/07:30am 23.6 20.6 1.9 24 10.3 S 7 7 4 4 - - 0.0
16/07:00am 22.1 18.9 0.6 24 9.8 S 7 9 4 5 - - 0.0
16/06:30am 22.9 20.3 0.7 23 10.2 SSW 4 7 2 4 - - 0.0
16/06:00am 23.3 20.3 1.0 23 10.4 S 6 7 3 4 - - 0.0
16/05:30am 24.2 21.6 1.2 22 10.8 S 4 6 2 3 - - 0.0
16/05:00am 28.1 25.1 2.3 19 12.7 ENE 7 11 4 6 - - 0.0
16/04:30am 28.3 25.3 1.7 18 13.0 E 7 11 4 6 - - 0.0
16/04:00am 28.8 25.3 1.3 17 13.4 E 9 13 5 7 - - 0.0
16/03:30am 29.6 25.6 0.2 15 14.1 E 11 17 6 9 - - 0.0
16/03:00am 30.6 26.4 -0.9 13 14.9 E 11 19 6 10 - - 0.0
16/02:30am 31.3 26.9 -2.6 11 15.7 ESE 11 17 6 9 - - 0.0
16/02:00am 31.5 27.1 -2.5 11 15.8 SE 11 13 6 7 - - 0.0
16/01:30am 32.3 28.3 -1.9 11 16.1 ESE 9 15 5 8 - - 0.0
16/01:00am 32.3 28.2 -3.2 10 16.4 SE 9 15 5 8 - - 0.0
16/12:30am 32.2 27.7 -3.2 10 16.3 SSE 11 13 6 7 - - 0.0
16/12:00am 32.7 28.2 -2.9 10 16.6 SSE 11 15 6 8 - - 0.0
 
Date/Time
EDT
Temp
°C
App
Temp
°C
Dew
Point
°C
Rel
Hum
%
Delta-T
°C
Wind Press
QNH
hPa
Press
MSL
hPa
Rain since
9am
mm
Dir  Spd
km/h
Gust
km/h
Spd
kts
Gust
kts
15/11:30pm 32.6 27.9 -1.7 11 16.3 S 13 17 7 9 - - 0.0
15/11:00pm 32.4 28.8 0.5 13 15.7 S 9 13 5 7 - - 0.0
15/10:30pm 32.2 28.7 1.3 14 15.4 S 9 11 5 6 - - 0.0
15/10:00pm 32.6 29.6 1.7 14 15.5 S 7 9 4 5 - - 0.0
15/09:30pm 33.7 29.9 1.5 13 16.2 S 11 13 6 7 - - 0.0
15/09:00pm 35.0 31.1 1.4 12 17.0 SSW 11 13 6 7 - - 0.0
15/08:30pm 38.6 34.5 0.1 9 19.6 SSW 11 15 6 8 - - 0.0
15/08:00pm 40.8 35.6 0.1 8 20.9 SSW 17 22 9 12 - - 0.0
15/07:30pm 41.4 35.7 0.5 8 21.2 SSW 20 28 11 15 - - 0.0
15/07:00pm 41.6 35.5 0.7 8 21.3 SSW 22 32 12 17 - - 0.0
15/06:30pm 41.1 35.0 0.3 8 21.1 SSW 22 28 12 15 - - 0.0
15/06:00pm 42.0 36.3 -0.9 7 21.9 SW 19 26 10 14 - - 0.0
15/05:30pm 43.2 37.0 0.0 7 22.5 WSW 22 32 12 17 - - 0.0
15/05:00pm 43.7 36.1 0.4 7 22.7 SW 30 41 16 22 - - 0.0
15/04:30pm 42.7 35.0 -0.4 7 22.2 SW 30 43 16 23 - - 0.0
15/04:00pm 44.0 38.5 0.6 7 22.9 WSW 19 37 10 20 - - 0.0
15/03:30pm 43.4 37.9 2.0 8 22.2 SW 20 32 11 17 - - 0.0
15/03:00pm 44.4 40.8 2.7 8 22.7 W 11 26 6 14 - - 0.0
15/02:30pm 43.6 38.7 2.1 8 22.3 WSW 17 28 9 15 - - 0.0
15/02:00pm 44.6 41.0 2.9 8 22.8 SW 11 24 6 13 - - 0.0
15/01:30pm 42.5 39.3 3.0 9 21.4 W 9 17 5 9 - - 0.0
15/01:00pm 42.0 39.1 2.6 9 21.2 W 7 15 4 8 - - 0.0
15/12:30pm 41.3 38.6 3.6 10 20.5 W 7 13 4 7 - - 0.0
15/12:00pm 40.9 37.4 3.3 10 20.3 NNW 11 19 6 10 - - 0.0
15/11:30am 40.2 37.0 2.8 10 20.0 N 9 13 5 7 - - 0.0
15/11:00am 39.3 35.6 2.1 10 19.6 NNE 11 17 6 9 - - 0.0
15/10:30am 38.4 35.2 2.8 11 18.8 NE 9 13 5 7 - - 0.0
15/10:00am 37.5 33.9 0.7 10 18.7 ENE 9 17 5 9 - - 0.0
15/09:30am 34.7 30.6 2.3 13 16.6 NE 13 20 7 11 - - 0.0
15/09:00am 32.5 28.8 2.5 15 15.3 ENE 11 17 6 9 - - 0.0
15/08:30am 29.8 26.8 5.8 22 12.7 ENE 11 15 6 8 - - 0.0
15/08:00am 27.5 24.8 7.4 28 10.8 E 11 13 6 7 - - 0.0
15/07:30am 25.3 23.1 7.9 33 9.3 ESE 9 13 5 7 - - 0.0
15/07:00am 24.2 21.7 8.2 36 8.5 ESE 11 17 6 9 - - 0.0
15/06:30am 24.3 21.1 8.3 36 8.6 E 15 19 8 10 - - 0.0
15/06:00am 24.8 21.9 8.3 35 8.9 E 13 19 7 10 - - 0.0
15/05:30am 25.3 22.4 8.3 34 9.2 ESE 13 17 7 9 - - 0.0
15/05:00am 25.8 22.9 8.3 33 9.5 ESE 13 19 7 10 - - 0.0
15/04:30am 26.0 23.5 8.0 32 9.7 ESE 11 17 6 9 - - 0.0
15/04:00am 26.0 22.6 7.6 31 9.8 SE 15 19 8 10 - - 0.0
15/03:30am 26.8 23.1 7.8 30 10.2 SE 17 22 9 12 - - 0.0
15/03:00am 26.5 23.0 5.5 26 10.8 SSE 13 19 7 10 - - 0.0
15/02:30am 26.9 23.2 4.6 24 11.4 SSE 13 20 7 11 - - 0.0
15/02:00am 27.0 22.7 3.5 22 11.7 SSE 15 19 8 10 - - 0.0
15/01:30am 26.6 21.9 1.1 19 12.2 S 15 19 8 10 - - 0.0
15/01:00am 27.2 22.5 0.8 18 12.6 S 15 17 8 9 - - 0.0
15/12:30am 28.3 23.7 -0.8 15 13.6 S 13 17 7 9 - - 0.0
15/12:00am 29.4 24.2 -2.9 12 14.7 S 15 19 8 10 - - 0.0
 
Date/Time
EDT
Temp
°C
App
Temp
°C
Dew
Point
°C
Rel
Hum
%
Delta-T
°C
Wind Press
QNH
hPa
Press
MSL
hPa
Rain since
9am
mm
Dir  Spd
km/h
Gust
km/h
Spd
kts
Gust
kts
14/11:30pm 28.3 23.7 -3.8 12 14.2 S 11 13 6 7 - - 0.0
14/11:00pm 30.3 25.3 -4.7 10 15.5 S 13 15 7 8 - - 0.0
14/10:30pm 32.4 27.4 -4.5 9 16.7 S 13 17 7 9 - - 0.0

Other Formats:

Comma delimited format used in spreadsheet applications
http://www.bom.gov.au/fwo/IDV60801/IDV60801.95831.axf

JavaScript Object Notation format (JSON) in row-major order
http://www.bom.gov.au/fwo/IDV60801/IDV60801.95831.json